Time;durP1;ratioP1;P1;durP2;ratioP2;P2;SDS_P1;SDS_P2;PMS_P1;PMS_P2;Temp;Humidity;BMP_temperature;BMP_pressure;BME280_temperature;BME280_humidity;BME280_pressure;Samples;Min_cycle;Max_cycle;Signal;HPM_P1;HPM_P2
2022/02/16 13:00:47;;;;;;;47.70;37.85;;;10.10;99.90;;;;;;5077832;27;20127;-80
2022/02/16 13:03:13;;;;;;;47.67;39.47;;;9.80;99.90;;;;;;5070997;28;20029;-81
2022/02/16 13:05:44;;;;;;;49.88;39.97;;;9.40;99.90;;;;;;5069642;28;20021;-82
2022/02/16 13:08:12;;;;;;;50.47;39.42;;;9.00;99.90;;;;;;5069993;28;20065;-82
2022/02/16 13:10:44;;;;;;;50.25;41.10;;;8.80;99.90;;;;;;5068808;28;20032;-82
2022/02/16 13:13:17;;;;;;;54.85;41.60;;;8.60;99.90;;;;;;5066883;28;20060;-83
2022/02/16 13:15:46;;;;;;;50.22;41.08;;;8.30;99.90;;;;;;5066239;28;20525;-82
2022/02/16 13:18:16;;;;;;;52.05;42.03;;;8.10;99.90;;;;;;5066231;28;20039;-82
2022/02/16 13:20:45;;;;;;;57.17;41.17;;;8.00;99.90;;;;;;5064252;28;20040;-83
2022/02/16 13:23:21;;;;;;;59.70;43.35;;;8.00;99.90;;;;;;5049228;28;20060;-82
2022/02/16 13:25:54;;;;;;;55.95;42.72;;;8.00;99.90;;;;;;5066010;28;20066;-82
2022/02/16 13:28:28;;;;;;;54.42;43.58;;;8.10;99.90;;;;;;5063692;28;20094;-82
2022/02/16 13:30:56;;;;;;;58.63;41.88;;;8.30;99.90;;;;;;5058188;28;20028;-83
2022/02/16 13:33:22;;;;;;;53.92;40.75;;;8.50;99.90;;;;;;5042786;28;20029;-82
2022/02/16 13:35:57;;;;;;;48.80;40.22;;;8.60;99.90;;;;;;5038236;28;20071;-82
2022/02/16 13:38:22;;;;;;;52.47;40.25;;;8.60;99.90;;;;;;5028533;28;20377;-83
2022/02/16 13:40:52;;;;;;;49.92;39.63;;;8.60;99.90;;;;;;5032412;28;20052;-82
2022/02/16 13:43:21;;;;;;;49.72;40.13;;;8.50;99.90;;;;;;5035891;28;20107;-83
2022/02/16 13:45:48;;;;;;;45.22;38.33;;;8.50;99.90;;;;;;5035688;28;20024;-81
2022/02/16 13:48:26;;;;;;;48.72;37.80;;;8.60;99.90;;;;;;5044121;28;20099;-82
2022/02/16 13:50:57;;;;;;;50.10;39.30;;;8.80;99.90;;;;;;5038142;28;20022;-82
2022/02/16 13:53:29;;;;;;;47.08;37.80;;;8.90;99.90;;;;;;5031745;28;20034;-81
2022/02/16 13:55:59;;;;;;;50.20;37.67;;;9.00;99.90;;;;;;5031277;28;20048;-82
2022/02/16 13:58:28;;;;;;;47.47;38.05;;;8.90;99.90;;;;;;5035748;28;20049;-81
2022/02/16 14:01:05;;;;;;;55.33;39.67;;;8.70;99.90;;;;;;5057598;28;20032;-84
2022/02/16 14:03:32;;;;;;;56.38;42.05;;;8.40;99.90;;;;;;5042359;28;20033;-83
2022/02/16 14:05:58;;;;;;;51.92;40.03;;;8.10;99.90;;;;;;5038555;28;20036;-83
2022/02/16 14:08:23;;;;;;;51.38;37.50;;;8.10;99.90;;;;;;5037008;28;20479;-81
2022/02/16 14:10:52;;;;;;;51.92;37.17;;;8.10;99.90;;;;;;5045909;28;20040;-81
2022/02/16 14:13:24;;;;;;;46.25;33.97;;;8.10;99.90;;;;;;5027574;28;20181;-82
2022/02/16 14:16:00;;;;;;;52.08;37.45;;;8.10;99.90;;;;;;5041432;28;20506;-84
2022/02/16 14:18:26;;;;;;;46.78;38.50;;;8.10;99.90;;;;;;5038176;28;20044;-81
2022/02/16 14:20:59;;;;;;;50.67;39.17;;;8.10;99.90;;;;;;5022247;28;20489;-81
2022/02/16 14:23:59;;;;;;;48.80;37.67;;;8.00;99.90;;;;;;5053156;28;20029;-81
2022/02/16 14:26:31;;;;;;;49.85;37.63;;;8.10;99.90;;;;;;5045381;28;20082;-83
2022/02/16 14:29:09;;;;;;;52.00;38.17;;;8.10;99.90;;;;;;5044064;28;20419;-81
2022/02/16 14:31:38;;;;;;;46.45;37.83;;;8.10;99.90;;;;;;5040692;28;20044;-80
2022/02/16 14:34:07;;;;;;;43.85;35.63;;;8.10;99.90;;;;;;5048932;28;20025;-79
2022/02/16 14:36:36;;;;;;;50.17;39.10;;;8.00;99.90;;;;;;5040367;28;20025;-82
2022/02/16 14:39:07;;;;;;;52.45;40.13;;;8.00;99.90;;;;;;5036982;28;20136;-81
2022/02/16 14:41:59;;;;;;;50.72;36.67;;;8.00;99.90;;;;;;5047150;28;20017;-80
2022/02/16 14:44:35;;;;;;;42.03;35.75;;;8.00;99.90;;;;;;5035009;28;20125;-81
2022/02/16 14:47:13;;;;;;;53.08;39.00;;;8.00;99.90;;;;;;5043525;28;20029;-79
2022/02/16 14:49:40;;;;;;;47.90;36.58;;;7.90;99.90;;;;;;5040415;28;20086;-80
2022/02/16 14:52:15;;;;;;;48.47;37.80;;;8.00;99.90;;;;;;5022224;28;20845;-82
2022/02/16 14:54:45;;;;;;;47.35;35.22;;;8.10;99.90;;;;;;5045320;28;20318;-81
2022/02/16 14:57:11;;;;;;;40.25;34.22;;;8.10;99.90;;;;;;5040991;28;20480;-80
2022/02/16 14:59:38;;;;;;;45.92;35.60;;;8.00;99.90;;;;;;5018402;28;20049;-78
2022/02/16 15:02:14;;;;;;;49.95;37.35;;;7.90;99.90;;;;;;5039875;28;20494;-79
2022/02/16 15:04:46;;;;;;;40.63;32.08;;;8.00;99.90;;;;;;5041265;28;20021;-80
2022/02/16 15:07:15;;;;;;;46.38;35.58;;;7.90;99.90;;;;;;5042266;28;20036;-81
2022/02/16 15:09:44;;;;;;;47.10;36.42;;;7.80;99.90;;;;;;5048373;28;20025;-80
2022/02/16 15:12:10;;;;;;;42.45;32.75;;;7.90;99.90;;;;;;5043754;28;20021;-80
2022/02/16 15:14:40;;;;;;;42.00;32.05;;;7.80;99.90;;;;;;5044421;28;20083;-79
2022/02/16 15:17:21;;;;;;;44.83;34.55;;;7.80;99.90;;;;;;5031370;28;20556;-81
2022/02/16 15:20:18;;;;;;;45.95;33.20;;;7.80;99.90;;;;;;5022053;28;20030;-80
2022/02/16 15:22:54;;;;;;;45.15;35.55;;;7.80;99.90;;;;;;5025231;28;20033;-82
2022/02/16 15:25:19;;;;;;;40.72;32.90;;;7.90;99.90;;;;;;5061721;28;20396;-82
2022/02/16 15:27:49;;;;;;;40.78;31.92;;;8.00;99.90;;;;;;5041958;28;20028;-81
2022/02/16 15:30:17;;;;;;;44.00;30.95;;;7.90;99.90;;;;;;5041054;28;20119;-82
2022/02/16 15:32:43;;;;;;;47.40;34.88;;;7.90;99.90;;;;;;5032118;28;20037;-82
2022/02/16 15:35:11;;;;;;;45.35;34.50;;;7.70;99.90;;;;;;5042051;28;20040;-81
2022/02/16 15:37:47;;;;;;;45.85;33.72;;;7.70;99.90;;;;;;5046152;28;20074;-84
2022/02/16 15:40:13;;;;;;;43.58;33.60;;;7.80;99.90;;;;;;5038212;28;20124;-83
2022/02/16 15:42:56;;;;;;;47.70;35.15;;;7.90;99.90;;;;;;5044674;28;20040;-81
2022/02/16 15:45:22;;;;;;;42.25;34.17;;;7.80;99.90;;;;;;5037543;28;20025;-81
2022/02/16 15:47:48;;;;;;;45.28;35.80;;;7.80;99.90;;;;;;5043618;28;20044;-81
2022/02/16 15:50:15;;;;;;;42.92;34.28;;;7.80;99.90;;;;;;5045628;28;20061;-81
2022/02/16 15:52:41;;;;;;;45.78;35.28;;;7.80;99.90;;;;;;5022473;28;20029;-81
2022/02/16 15:55:07;;;;;;;45.58;35.58;;;7.80;99.90;;;;;;5044324;28;20638;-81
2022/02/16 15:57:33;;;;;;;43.58;35.13;;;7.80;99.90;;;;;;5043502;28;20123;-81
2022/02/16 15:59:58;;;;;;;46.15;34.55;;;7.90;99.90;;;;;;5048512;28;20124;-80
2022/02/16 16:02:28;;;;;;;45.83;35.55;;;8.00;99.90;;;;;;5041462;28;20112;-81
2022/02/16 16:04:54;;;;;;;55.47;37.50;;;7.90;99.90;;;;;;5040879;28;20289;-80
2022/02/16 16:07:20;;;;;;;46.63;35.22;;;7.90;99.90;;;;;;5045981;28;20032;-81
2022/02/16 16:09:46;;;;;;;47.17;35.60;;;7.90;99.90;;;;;;5019360;28;20025;-82
2022/02/16 16:12:12;;;;;;;49.65;37.55;;;8.00;99.90;;;;;;5042642;28;20028;-81
2022/02/16 16:14:38;;;;;;;49.40;36.83;;;8.00;99.90;;;;;;5042247;28;20662;-82
2022/02/16 16:17:04;;;;;;;46.97;35.78;;;8.00;99.90;;;;;;5043473;28;20024;-82
2022/02/16 16:19:33;;;;;;;48.20;36.30;;;8.00;99.90;;;;;;5025183;28;20048;-82
2022/02/16 16:22:01;;;;;;;42.72;34.92;;;8.00;99.90;;;;;;5043912;28;20513;-83
2022/02/16 16:24:27;;;;;;;47.28;37.55;;;8.00;99.90;;;;;;5041807;28;20546;-83
2022/02/16 16:27:02;;;;;;;47.28;35.33;;;8.00;99.90;;;;;;5043867;28;20028;-81
2022/02/16 16:29:41;;;;;;;41.50;33.35;;;8.00;99.90;;;;;;5056765;28;20084;-82
2022/02/16 16:32:10;;;;;;;49.38;35.55;;;8.00;99.90;;;;;;5057520;28;20102;-81
2022/02/16 16:34:36;;;;;;;56.40;38.28;;;7.90;99.90;;;;;;5051359;28;20614;-81
2022/02/16 16:37:05;;;;;;;45.15;34.72;;;7.80;99.90;;;;;;5024477;28;20068;-81
2022/02/16 16:39:31;;;;;;;64.72;39.30;;;7.80;99.90;;;;;;5050845;28;20036;-81
2022/02/16 16:42:07;;;;;;;49.67;36.38;;;7.80;99.90;;;;;;5038996;28;20029;-81
2022/02/16 16:44:33;;;;;;;49.00;36.80;;;7.80;99.90;;;;;;5050107;28;20120;-81
2022/02/16 16:47:08;;;;;;;48.95;36.05;;;7.70;99.90;;;;;;5021265;28;20105;-81
2022/02/16 16:49:34;;;;;;;47.50;35.83;;;7.80;99.90;;;;;;5035512;28;20017;-80
2022/02/16 16:52:00;;;;;;;47.53;37.25;;;7.80;99.90;;;;;;5026857;28;20424;-81
2022/02/16 16:54:33;;;;;;;49.60;37.20;;;7.80;99.90;;;;;;5041498;28;20083;-81
2022/02/16 16:57:00;;;;;;;48.08;36.47;;;7.80;99.90;;;;;;5040305;28;20388;-81
2022/02/16 16:59:26;;;;;;;49.45;34.95;;;7.80;99.90;;;;;;5038323;28;20037;-81
2022/02/16 17:01:52;;;;;;;51.55;36.65;;;7.70;99.90;;;;;;5045825;28;20379;-81
2022/02/16 17:04:20;;;;;;;49.58;38.30;;;7.70;99.90;;;;;;5049717;28;20448;-81
2022/02/16 17:06:46;;;;;;;47.55;36.05;;;7.70;99.90;;;;;;5027072;28;20025;-81
2022/02/16 17:09:12;;;;;;;57.88;37.33;;;7.70;99.90;;;;;;5048839;28;20495;-82
2022/02/16 17:11:39;;;;;;;53.03;38.53;;;7.70;99.90;;;;;;5040873;28;20059;-81
2022/02/16 17:14:05;;;;;;;57.90;38.95;;;7.70;99.90;;;;;;5051187;28;20021;-81
2022/02/16 17:16:31;;;;;;;49.17;38.95;;;7.70;99.90;;;;;;5040459;28;20107;-82
2022/02/16 17:18:58;;;;;;;52.95;38.22;;;7.70;99.90;;;;;;5024075;28;20025;-84
2022/02/16 17:21:25;;;;;;;48.38;37.95;;;7.70;99.90;;;;;;5048040;28;20022;-83
2022/02/16 17:24:00;;;;;;;50.08;36.78;;;7.70;99.90;;;;;;5038660;28;20028;-80
2022/02/16 17:26:26;;;;;;;50.60;38.15;;;7.80;99.90;;;;;;5043934;28;20029;-82
2022/02/16 17:28:53;;;;;;;49.50;36.38;;;7.90;99.90;;;;;;5041434;28;20568;-81
2022/02/16 17:31:19;;;;;;;48.22;35.95;;;7.90;99.90;;;;;;5041626;28;20068;-81
2022/02/16 17:33:45;;;;;;;51.53;36.90;;;7.90;99.90;;;;;;5027631;28;20020;-81
2022/02/16 17:36:11;;;;;;;53.03;38.00;;;7.80;99.90;;;;;;5044345;28;20034;-83
2022/02/16 17:38:40;;;;;;;46.47;35.92;;;7.80;99.90;;;;;;5031660;28;20048;-82
2022/02/16 17:41:06;;;;;;;49.90;36.60;;;7.70;99.90;;;;;;5021472;28;20048;-82
2022/02/16 17:43:32;;;;;;;48.72;35.00;;;7.70;99.90;;;;;;5049511;28;20029;-82
2022/02/16 17:46:04;;;;;;;48.67;35.22;;;7.80;99.90;;;;;;5027686;28;20021;-82
2022/02/16 17:48:29;;;;;;;46.30;35.92;;;7.80;99.90;;;;;;5044211;28;20021;-82
2022/02/16 17:50:57;;;;;;;47.75;34.97;;;7.80;99.90;;;;;;5026259;28;20032;-82
2022/02/16 17:53:23;;;;;;;42.97;34.80;;;7.90;99.90;;;;;;5028945;28;20021;-81
2022/02/16 17:55:49;;;;;;;48.28;36.20;;;7.90;99.90;;;;;;5047459;28;20598;-81
2022/02/16 17:58:16;;;;;;;46.90;35.10;;;7.80;99.90;;;;;;5024099;28;20025;-81
2022/02/16 18:00:41;;;;;;;44.80;35.17;;;7.80;99.90;;;;;;5042379;28;20526;-81
2022/02/16 18:03:07;;;;;;;47.67;34.63;;;7.80;99.90;;;;;;5042886;28;20100;-82
2022/02/16 18:05:38;;;;;;;49.90;37.10;;;7.80;99.90;;;;;;5051945;28;20032;-81
2022/02/16 18:08:04;;;;;;;38.28;31.67;;;7.80;99.90;;;;;;5040966;28;20071;-82
2022/02/16 18:10:30;;;;;;;45.47;34.38;;;7.90;99.90;;;;;;5023121;28;20030;-81
2022/02/16 18:12:56;;;;;;;48.72;36.97;;;8.00;99.90;;;;;;5026227;28;20045;-82
2022/02/16 18:15:25;;;;;;;43.15;34.53;;;7.90;99.90;;;;;;5033961;28;20072;-81
2022/02/16 18:17:52;;;;;;;46.35;36.63;;;7.90;99.90;;;;;;5029452;28;20033;-81
2022/02/16 18:20:18;;;;;;;46.10;33.50;;;7.90;99.90;;;;;;5052422;28;20059;-81
2022/02/16 18:22:44;;;;;;;47.67;36.90;;;7.80;99.90;;;;;;5040527;28;20028;-82
2022/02/16 18:25:10;;;;;;;44.25;36.25;;;7.80;99.90;;;;;;5058204;28;20028;-82
2022/02/16 18:27:37;;;;;;;46.63;34.88;;;7.80;99.90;;;;;;5030516;28;20099;-82
2022/02/16 18:30:06;;;;;;;46.42;35.33;;;7.80;99.90;;;;;;5024649;28;20465;-81
2022/02/16 18:32:32;;;;;;;47.95;35.40;;;7.90;99.90;;;;;;5049956;28;20024;-81
2022/02/16 18:34:57;;;;;;;40.50;33.05;;;7.90;99.90;;;;;;5026630;28;20025;-81
2022/02/16 18:37:23;;;;;;;41.08;31.92;;;8.00;99.90;;;;;;5026585;28;20052;-81
2022/02/16 18:39:52;;;;;;;46.72;34.30;;;8.00;99.90;;;;;;5046620;28;20512;-81
2022/02/16 18:42:19;;;;;;;50.58;33.40;;;8.00;99.90;;;;;;5047219;28;20507;-81
2022/02/16 18:44:46;;;;;;;39.50;33.00;;;7.90;99.90;;;;;;5025565;28;20040;-81
2022/02/16 18:47:12;;;;;;;50.25;36.00;;;7.90;99.90;;;;;;5035244;28;20024;-82
2022/02/16 18:49:38;;;;;;;45.53;35.55;;;7.90;99.90;;;;;;5047425;28;20102;-82
2022/02/16 18:52:05;;;;;;;48.80;37.28;;;7.90;99.90;;;;;;5030254;28;20449;-81
2022/02/16 18:54:31;;;;;;;47.92;36.42;;;7.90;99.90;;;;;;5035335;28;20373;-82
2022/02/16 18:56:57;;;;;;;44.70;33.97;;;7.80;99.90;;;;;;5043053;28;20112;-81
2022/02/16 18:59:24;;;;;;;45.30;34.22;;;7.80;99.90;;;;;;5034749;28;20139;-82
2022/02/16 19:01:50;;;;;;;43.47;35.47;;;7.80;99.90;;;;;;5045376;28;20022;-82
2022/02/16 19:04:20;;;;;;;39.85;32.55;;;7.80;99.90;;;;;;5043787;28;20045;-82
2022/02/16 19:06:51;;;;;;;41.42;34.28;;;7.90;99.90;;;;;;5025083;28;20123;-81
2022/02/16 19:09:19;;;;;;;43.40;32.75;;;7.90;99.90;;;;;;5023363;28;20041;-82
2022/02/16 19:11:44;;;;;;;42.33;32.38;;;7.90;99.90;;;;;;5036370;28;20081;-81
2022/02/16 19:14:11;;;;;;;58.63;40.58;;;7.80;99.90;;;;;;5039454;28;20468;-82
2022/02/16 19:16:37;;;;;;;47.80;37.38;;;7.80;99.90;;;;;;5021722;28;20060;-81
2022/02/16 19:19:04;;;;;;;43.58;34.35;;;7.80;99.90;;;;;;5050443;28;20146;-81
2022/02/16 19:21:30;;;;;;;40.53;33.40;;;7.70;99.90;;;;;;5023352;28;20036;-82
2022/02/16 19:23:55;;;;;;;43.67;36.85;;;7.70;99.90;;;;;;5031878;28;20089;-81
2022/02/16 19:26:21;;;;;;;39.47;33.25;;;7.70;99.90;;;;;;5020778;28;20399;-82
2022/02/16 19:28:47;;;;;;;43.50;33.83;;;7.80;99.90;;;;;;5018916;28;20034;-81
2022/02/16 19:31:15;;;;;;;43.58;33.13;;;8.00;99.90;;;;;;5039202;28;20025;-82
2022/02/16 19:33:40;;;;;;;41.58;33.80;;;8.00;99.90;;;;;;5047238;28;20090;-81
2022/02/16 19:36:06;;;;;;;38.35;32.50;;;8.20;99.90;;;;;;5040626;28;20029;-81
2022/02/16 19:38:32;;;;;;;40.55;33.20;;;8.20;99.90;;;;;;5042450;28;20033;-81
2022/02/16 19:40:58;;;;;;;44.88;32.35;;;8.10;99.90;;;;;;5037559;28;20496;-80
2022/02/16 19:43:24;;;;;;;41.75;33.35;;;8.00;99.90;;;;;;5038663;28;20025;-82
2022/02/16 19:45:51;;;;;;;41.13;30.77;;;7.90;99.90;;;;;;5038717;28;20030;-81
2022/02/16 19:48:19;;;;;;;41.95;33.50;;;7.80;99.90;;;;;;5022514;28;20072;-81
2022/02/16 19:50:46;;;;;;;39.60;31.92;;;7.70;99.90;;;;;;5039263;28;20028;-82
2022/02/16 19:53:12;;;;;;;40.50;32.67;;;7.60;99.90;;;;;;5041659;28;20082;-81
2022/02/16 19:55:39;;;;;;;40.47;31.63;;;7.60;99.90;;;;;;5040399;28;20029;-82
2022/02/16 19:58:06;;;;;;;35.35;28.35;;;7.70;99.90;;;;;;5039598;28;20503;-82
2022/02/16 20:00:32;;;;;;;36.85;28.60;;;7.70;99.90;;;;;;5000663;28;20054;-82
2022/02/16 20:02:58;;;;;;;33.65;27.45;;;7.70;99.90;;;;;;5002646;28;20030;-82
2022/02/16 20:05:25;;;;;;;36.25;28.63;;;7.80;99.90;;;;;;5000078;28;20446;-81
2022/02/16 20:07:52;;;;;;;34.97;27.42;;;7.80;99.90;;;;;;5002593;28;20030;-82
2022/02/16 20:10:19;;;;;;;41.60;29.30;;;7.70;99.90;;;;;;4999349;28;20506;-82
2022/02/16 20:12:45;;;;;;;38.58;31.27;;;7.70;99.90;;;;;;4996798;28;20027;-82
2022/02/16 20:15:11;;;;;;;40.92;31.52;;;7.70;99.90;;;;;;4994952;28;20034;-82
2022/02/16 20:17:38;;;;;;;42.80;32.00;;;7.80;99.90;;;;;;4999302;28;20798;-81
2022/02/16 20:20:13;;;;;;;36.63;30.00;;;7.80;99.90;;;;;;5004638;28;20408;-82
2022/02/16 20:22:39;;;;;;;37.08;31.33;;;7.70;99.90;;;;;;4998859;28;20029;-82
2022/02/16 20:25:06;;;;;;;42.15;30.20;;;7.60;99.90;;;;;;4995296;28;20030;-82
2022/02/16 20:27:33;;;;;;;35.45;28.55;;;7.60;99.90;;;;;;5001269;28;20144;-82
2022/02/16 20:29:58;;;;;;;34.33;29.05;;;7.60;99.90;;;;;;4995347;28;20159;-82
2022/02/16 20:32:25;;;;;;;35.70;30.27;;;7.70;99.90;;;;;;4996826;28;20533;-81
2022/02/16 20:34:51;;;;;;;34.85;30.52;;;7.70;99.90;;;;;;5002169;28;20030;-82
2022/02/16 20:37:17;;;;;;;36.22;30.85;;;7.80;99.90;;;;;;4997398;28;20041;-81
2022/02/16 20:39:43;;;;;;;43.38;33.53;;;7.80;99.90;;;;;;5008225;28;20033;-81
2022/02/16 20:42:27;;;;;;;41.80;33.30;;;7.90;99.90;;;;;;5023083;28;20030;-82
2022/02/16 20:44:55;;;;;;;44.28;32.78;;;7.90;99.90;;;;;;5015012;28;20065;-82
2022/02/16 20:47:21;;;;;;;42.22;32.97;;;7.90;99.90;;;;;;5002666;28;20057;-82
2022/02/16 20:49:48;;;;;;;43.25;33.17;;;8.00;99.90;;;;;;5010054;28;20045;-81
2022/02/16 20:52:16;;;;;;;46.67;34.67;;;8.00;99.90;;;;;;5015349;28;20026;-81
2022/02/16 20:54:43;;;;;;;44.90;34.97;;;8.00;99.90;;;;;;5018854;28;20026;-82
2022/02/16 20:57:09;;;;;;;41.33;34.92;;;8.00;99.90;;;;;;5001778;28;20440;-82
2022/02/16 20:59:35;;;;;;;44.65;36.50;;;8.00;99.90;;;;;;4993512;28;20050;-81
2022/02/16 21:02:01;;;;;;;42.08;35.08;;;8.00;99.90;;;;;;4996844;28;20026;-81
2022/02/16 21:04:34;;;;;;;43.90;34.75;;;8.00;99.90;;;;;;4998191;28;20156;-83
2022/02/16 21:07:00;;;;;;;38.75;29.38;;;8.00;99.90;;;;;;4999065;28;20038;-82
2022/02/16 21:09:27;;;;;;;38.92;26.60;;;8.00;99.90;;;;;;5004960;28;20477;-87
2022/02/16 21:11:53;;;;;;;32.35;25.73;;;7.90;99.90;;;;;;5005965;28;20076;-83
2022/02/16 21:14:19;;;;;;;35.47;24.15;;;7.90;99.90;;;;;;4999154;28;20034;-82
2022/02/16 21:16:45;;;;;;;32.80;24.55;;;7.90;99.90;;;;;;4997804;28;20097;-83
2022/02/16 21:19:12;;;;;;;35.95;25.73;;;7.80;99.90;;;;;;4998031;28;20485;-82
2022/02/16 21:21:38;;;;;;;34.17;25.60;;;7.80;99.90;;;;;;5008138;28;20061;-84
2022/02/16 21:24:05;;;;;;;39.22;27.48;;;7.70;99.90;;;;;;4997585;28;20038;-79
2022/02/16 21:26:34;;;;;;;39.22;29.05;;;7.60;99.90;;;;;;5000411;28;20026;-80
2022/02/16 21:29:02;;;;;;;42.50;30.17;;;7.50;99.90;;;;;;5022764;28;20018;-81
2022/02/16 21:31:30;;;;;;;42.97;31.23;;;7.40;99.90;;;;;;5005816;28;20121;-81
2022/02/16 21:33:56;;;;;;;39.80;30.30;;;7.20;99.90;;;;;;5000310;28;20029;-85
2022/02/16 21:36:22;;;;;;;34.97;26.65;;;7.20;99.90;;;;;;5001124;28;20393;-80
2022/02/16 21:38:50;;;;;;;32.45;26.38;;;7.10;99.90;;;;;;5000655;28;20474;-79
2022/02/16 21:41:23;;;;;;;36.60;26.38;;;7.00;99.90;;;;;;5001682;28;20030;-81
2022/02/16 21:43:50;;;;;;;28.52;20.50;;;6.90;99.90;;;;;;4999378;28;20037;-79
2022/02/16 21:46:19;;;;;;;32.38;21.25;;;6.80;99.90;;;;;;5002352;28;20034;-80
2022/02/16 21:48:46;;;;;;;26.98;20.08;;;6.70;99.90;;;;;;5007269;28;20109;-80
2022/02/16 21:51:11;;;;;;;29.40;20.88;;;6.70;99.90;;;;;;5005148;28;20034;-79
2022/02/16 21:53:37;;;;;;;28.23;21.27;;;6.60;99.90;;;;;;4999390;28;20026;-80
2022/02/16 21:56:04;;;;;;;25.85;19.70;;;6.60;99.90;;;;;;4999845;28;20057;-80
2022/02/16 21:58:30;;;;;;;25.73;18.88;;;6.50;99.90;;;;;;5015728;28;20022;-78
2022/02/16 22:00:59;;;;;;;28.08;19.02;;;6.40;99.90;;;;;;5038947;28;20025;-80
2022/02/16 22:03:25;;;;;;;24.40;18.27;;;6.30;99.90;;;;;;5038098;28;20021;-79
2022/02/16 22:05:51;;;;;;;27.60;20.17;;;6.30;99.90;;;;;;5046348;28;20044;-79
2022/02/16 22:08:17;;;;;;;27.77;19.10;;;6.30;99.90;;;;;;5054554;28;20082;-80
2022/02/16 22:10:43;;;;;;;24.48;18.85;;;6.30;99.90;;;;;;5046675;28;20373;-82
2022/02/16 22:13:09;;;;;;;21.55;16.40;;;6.30;99.90;;;;;;5050675;28;20032;-82
2022/02/16 22:15:35;;;;;;;21.15;17.05;;;6.30;99.90;;;;;;5032201;28;20044;-81
2022/02/16 22:18:03;;;;;;;20.98;16.88;;;6.30;99.90;;;;;;5051211;28;20021;-81
2022/02/16 22:20:51;;;;;;;25.67;17.77;;;6.30;99.90;;;;;;5032205;28;20037;-80
2022/02/16 22:23:18;;;;;;;23.50;16.27;;;6.20;99.90;;;;;;5030581;28;20013;-80
2022/02/16 22:25:49;;;;;;;22.67;17.10;;;6.30;99.90;;;;;;5049745;28;20036;-81
2022/02/16 22:28:15;;;;;;;22.70;16.13;;;6.20;99.90;;;;;;5031381;28;20041;-81
2022/02/16 22:30:41;;;;;;;20.85;16.17;;;6.20;99.90;;;;;;5042381;28;20040;-82
2022/02/16 22:33:31;;;;;;;;;;;;;;;;;;;;;
2022/02/16 22:36:00;;;;;;;21.55;16.58;;;6.30;99.90;;;;;;5046746;28;20023;-82
2022/02/16 22:38:38;;;;;;;21.83;16.75;;;6.20;99.90;;;;;;5049512;28;20039;-81
2022/02/16 22:41:24;;;;;;;33.50;16.92;;;6.20;99.90;;;;;;5026946;28;20538;-83
2022/02/16 22:43:59;;;;;;;22.48;16.83;;;6.20;99.90;;;;;;5050496;28;20027;-83
2022/02/16 22:46:27;;;;;;;23.38;17.60;;;6.10;99.90;;;;;;5030615;28;20048;-81
2022/02/16 22:48:59;;;;;;;25.73;17.48;;;6.10;99.90;;;;;;5048553;28;20112;-83
2022/02/16 22:51:34;;;;;;;21.90;16.85;;;6.00;99.90;;;;;;5049292;28;20029;-83
2022/02/16 22:54:46;;;;;;;19.92;17.42;;;5.90;99.90;;;;;;5047295;28;20048;-82
2022/02/16 23:00:51;;;;;;;22.30;16.25;;;5.80;99.90;;;;;;5023548;28;20132;-81
2022/02/16 23:03:33;;;;;;;22.45;17.27;;;5.70;99.90;;;;;;5050368;28;20025;-84
2022/02/16 23:18:00;;;;;;;18.00;15.35;;;5.50;99.90;;;;;;5010206;28;20034;-83
2022/02/16 23:21:03;;;;;;;21.95;16.10;;;5.40;99.90;;;;;;5036878;28;20048;-83
2022/02/16 23:23:56;;;;;;;19.65;14.82;;;5.40;99.90;;;;;;5038032;28;20025;-84
2022/02/16 23:26:23;;;;;;;20.10;13.65;;;5.30;99.90;;;;;;4988631;28;20030;-83
2022/02/16 23:29:15;;;;;;;15.40;12.50;;;5.20;99.90;;;;;;5039079;28;20034;-81
2022/02/16 23:32:11;;;;;;;;;;;;;;;;;;;;;
2022/02/16 23:35:27;;;;;;;14.27;10.52;;;5.10;99.90;;;;;;5036168;28;20030;-83
2022/02/16 23:38:12;;;;;;;12.20;10.32;;;5.00;99.90;;;;;;5036851;28;20389;-82
2022/02/16 23:40:43;;;;;;;14.52;10.95;;;5.00;99.90;;;;;;5040103;28;20044;-82
2022/02/16 23:43:18;;;;;;;13.55;11.02;;;4.90;99.90;;;;;;5034895;28;20057;-81
2022/02/16 23:46:03;;;;;;;12.80;10.30;;;4.90;99.90;;;;;;5040913;28;20063;-83
2022/02/16 23:49:10;;;;;;;12.48;10.70;;;4.80;99.90;;;;;;5034699;28;20026;-83
2022/02/16 23:52:12;;;;;;;12.43;9.82;;;4.80;99.90;;;;;;5023408;28;20400;-83
2022/02/16 23:54:41;;;;;;;14.15;9.90;;;4.70;99.90;;;;;;5003076;28;20034;-83
2022/02/16 23:57:13;;;;;;;37.65;26.65;;;4.70;99.90;;;;;;5045707;28;20108;-83
2022/02/16 23:59:54;;;;;;;23.10;17.83;;;4.70;99.90;;;;;;5035067;28;20507;-83
